createdAt,value
2023-03-23T15:58:17.901Z,1.27
2023-03-23T16:00:46.401Z,1.52
2023-03-23T16:03:22.430Z,1.63
2023-03-23T16:05:50.316Z,2.17
2023-03-23T16:08:18.217Z,2.45
2023-03-23T16:10:44.982Z,2.17
2023-03-23T16:13:13.315Z,1.58
2023-03-23T16:15:40.341Z,1.80
2023-03-23T16:18:07.130Z,1.73
2023-03-23T16:20:34.272Z,1.40
2023-03-23T16:23:01.117Z,2.38
2023-03-23T16:25:29.230Z,2.38
2023-03-23T16:27:55.917Z,1.48
2023-03-23T16:30:24.996Z,1.40
2023-03-23T16:32:54.194Z,1.70
2023-03-23T16:35:22.380Z,1.60
2023-03-23T16:37:50.722Z,1.48
2023-03-23T16:40:19.390Z,1.40
2023-03-23T16:42:47.916Z,1.30
2023-03-23T16:45:15.554Z,1.38
2023-03-23T16:47:42.912Z,1.48
2023-03-23T16:50:11.633Z,1.60
2023-03-23T16:52:46.348Z,1.33
2023-03-23T16:55:15.223Z,2.25
2023-03-23T16:57:43.488Z,2.90
2023-03-23T17:00:15.097Z,1.50
2023-03-23T17:02:42.708Z,1.67
2023-03-23T17:05:10.587Z,1.55
2023-03-23T17:07:37.765Z,1.52
2023-03-23T17:10:05.371Z,1.88
2023-03-23T17:12:32.219Z,1.77
2023-03-23T17:14:58.914Z,1.75
2023-03-23T17:17:27.503Z,2.00
2023-03-23T17:19:54.468Z,2.00
2023-03-23T17:22:22.162Z,1.65
2023-03-23T17:24:49.124Z,1.50
2023-03-23T17:27:16.400Z,1.88
2023-03-23T17:29:43.168Z,2.13
2023-03-23T17:32:12.747Z,1.48
2023-03-23T17:34:42.500Z,1.60
2023-03-23T17:37:11.356Z,2.05
2023-03-23T17:39:42.700Z,1.90
2023-03-23T17:42:10.115Z,1.40
2023-03-23T17:44:37.124Z,1.38
2023-03-23T17:47:03.778Z,1.80
2023-03-23T17:49:30.573Z,1.50
2023-03-23T17:51:59.571Z,1.50
2023-03-23T17:54:26.501Z,1.30
2023-03-23T17:56:53.563Z,2.05
2023-03-23T17:59:20.589Z,2.30
2023-03-23T18:01:47.435Z,2.25
2023-03-23T18:04:14.392Z,2.10
2023-03-23T18:06:41.051Z,1.90
2023-03-23T18:09:09.145Z,1.35
2023-03-23T18:11:36.270Z,1.55
2023-03-23T18:14:02.981Z,1.40
2023-03-23T18:16:29.935Z,1.42
2023-03-23T18:18:56.648Z,1.50
2023-03-23T18:21:23.472Z,1.42
2023-03-23T18:23:58.802Z,1.40
2023-03-23T18:26:28.977Z,1.40
2023-03-23T18:28:55.854Z,1.67
2023-03-23T18:31:23.065Z,1.75
2023-03-23T18:33:51.129Z,1.60
2023-03-23T18:36:21.075Z,1.23
2023-03-23T18:38:48.634Z,1.92
2023-03-23T18:41:16.777Z,2.00
2023-03-23T18:43:44.977Z,2.05
2023-03-23T18:46:11.675Z,3.03
2023-03-23T18:48:38.613Z,3.03
2023-03-23T18:51:05.767Z,2.25
2023-03-23T18:53:32.825Z,1.95
2023-03-23T18:56:08.198Z,2.60
2023-03-23T18:58:35.124Z,4.45
2023-03-23T19:01:07.881Z,3.53
2023-03-23T19:03:34.990Z,2.80
2023-03-23T19:06:02.222Z,2.55
2023-03-23T19:08:30.157Z,3.00
2023-03-23T19:10:58.608Z,2.70
2023-03-23T19:13:25.536Z,3.05
2023-03-23T19:15:52.642Z,2.33
2023-03-23T19:18:21.158Z,2.75
2023-03-23T19:21:12.621Z,2.10
2023-03-23T19:23:34.946Z,2.25
2023-03-23T19:26:01.652Z,2.30
2023-03-23T19:29:00.505Z,2.33
2023-03-23T19:31:14.989Z,1.92
2023-03-23T19:33:43.067Z,2.00
2023-03-23T19:36:12.996Z,2.10
2023-03-23T19:38:40.153Z,2.47
2023-03-23T19:41:07.217Z,2.58
2023-03-23T19:43:34.233Z,1.85
2023-03-23T19:46:01.008Z,1.70
2023-03-23T19:48:28.803Z,1.85
2023-03-23T19:50:57.085Z,1.77
2023-03-23T19:53:24.376Z,1.65
2023-03-23T19:55:51.460Z,2.20
2023-03-23T19:58:18.715Z,1.80
2023-03-23T20:00:45.984Z,2.20
2023-03-23T20:03:12.987Z,2.10
2023-03-23T20:05:40.730Z,2.25
2023-03-23T20:08:09.011Z,1.92
2023-03-23T20:10:36.301Z,1.95
2023-03-23T20:13:03.704Z,2.25
2023-03-23T20:15:31.396Z,1.60
2023-03-23T20:17:58.785Z,1.67
2023-03-23T20:20:25.535Z,2.03
2023-03-23T20:22:53.921Z,2.03
2023-03-23T20:25:24.543Z,1.85
2023-03-23T20:27:51.309Z,1.73
2023-03-23T20:30:18.253Z,3.17
2023-03-23T20:32:45.111Z,1.88
2023-03-23T20:35:12.371Z,2.20
2023-03-23T20:37:40.101Z,2.22
2023-03-23T20:40:08.412Z,2.78
2023-03-23T20:42:37.190Z,2.63
2023-03-23T20:45:05.929Z,10.45
2023-03-23T20:47:32.796Z,4.28
2023-03-23T20:49:59.413Z,9.00
2023-03-23T20:52:26.360Z,5.88
2023-03-23T20:54:53.666Z,9.80
2023-03-23T20:57:21.023Z,6.28
2023-03-23T20:59:49.224Z,4.20
2023-03-23T21:02:17.527Z,4.78
2023-03-23T21:04:44.578Z,5.50
2023-03-23T21:07:11.981Z,7.55
2023-03-23T21:09:38.955Z,12.18
2023-03-23T21:12:06.366Z,11.18
2023-03-23T21:14:33.159Z,6.13
2023-03-23T21:17:01.219Z,3.30
2023-03-23T21:19:28.534Z,3.30
2023-03-23T21:21:56.842Z,6.63
2023-03-23T21:24:26.720Z,31.67
2023-03-23T21:26:53.825Z,14.82
2023-03-23T21:29:20.624Z,14.23
2023-03-23T21:31:50.197Z,17.05
2023-03-23T21:34:23.131Z,28.90
2023-03-23T21:36:49.838Z,21.00
2023-03-23T21:39:16.501Z,12.10
2023-03-23T21:41:43.095Z,8.25
2023-03-23T21:44:09.787Z,7.82
2023-03-23T21:46:36.866Z,7.88
2023-03-23T21:49:04.567Z,6.00
2023-03-23T21:51:32.622Z,5.53
2023-03-23T21:53:59.188Z,6.63
2023-03-23T21:56:26.711Z,5.70
2023-03-23T21:58:53.728Z,6.22
2023-03-23T22:01:21.131Z,4.15
2023-03-23T22:03:48.508Z,4.15
2023-03-23T22:06:16.919Z,4.38
2023-03-23T22:08:46.591Z,3.42
2023-03-23T22:11:15.868Z,3.50
2023-03-23T22:13:42.940Z,3.50
2023-03-23T22:16:12.775Z,3.80
2023-03-23T22:18:40.752Z,3.65
2023-03-23T22:21:07.417Z,3.80
2023-03-23T22:23:34.443Z,4.20
2023-03-23T22:26:02.830Z,3.53
2023-03-23T22:28:30.588Z,3.97
2023-03-23T22:31:00.893Z,4.22
2023-03-23T22:33:27.629Z,3.70
2023-03-23T22:35:54.333Z,3.60
2023-03-23T22:38:22.241Z,3.60
2023-03-23T22:40:55.118Z,3.20
2023-03-23T22:43:23.534Z,2.80
2023-03-23T22:45:50.699Z,2.97
2023-03-23T22:48:17.508Z,3.72
2023-03-23T22:50:45.030Z,3.33
2023-03-23T22:53:11.934Z,3.25
2023-03-23T22:55:42.289Z,3.22
2023-03-23T22:58:08.992Z,3.38
2023-03-23T23:00:37.365Z,3.30
2023-03-23T23:03:04.558Z,3.47
2023-03-23T23:05:31.364Z,3.20
2023-03-23T23:07:58.039Z,3.70
2023-03-23T23:10:24.858Z,3.47
2023-03-23T23:12:51.585Z,3.50
2023-03-23T23:15:18.374Z,3.20
2023-03-23T23:17:46.782Z,3.42
2023-03-23T23:20:13.535Z,3.40
2023-03-23T23:22:40.996Z,3.70
2023-03-23T23:25:08.652Z,3.60
2023-03-23T23:27:35.415Z,3.90
2023-03-23T23:30:02.125Z,3.63
2023-03-23T23:32:28.948Z,3.03
2023-03-23T23:34:57.069Z,3.97
2023-03-23T23:37:23.802Z,3.30
2023-03-23T23:39:50.544Z,3.05
2023-03-23T23:42:17.373Z,3.03
2023-03-23T23:44:44.134Z,3.13
2023-03-23T23:47:11.404Z,3.22
2023-03-23T23:49:38.304Z,3.85
2023-03-23T23:52:08.478Z,3.08
2023-03-23T23:54:35.272Z,3.50
2023-03-23T23:57:02.390Z,3.17
2023-03-23T23:59:29.762Z,4.07
